createdAt,value
2019-05-13T00:00:36.656Z,67.62
2019-05-13T00:01:36.544Z,67.52
2019-05-13T00:02:36.538Z,67.52
2019-05-13T00:03:36.538Z,67.40
2019-05-13T00:04:36.422Z,67.52
2019-05-13T00:05:36.419Z,67.43
2019-05-13T00:06:49.889Z,67.58
2019-05-13T00:07:36.300Z,67.71
2019-05-13T00:08:36.183Z,67.43
2019-05-13T00:09:36.181Z,67.52
2019-05-13T00:10:36.065Z,67.52
2019-05-13T00:11:36.096Z,67.68
2019-05-13T00:12:35.945Z,67.33
2019-05-13T00:13:35.945Z,67.30
2019-05-13T00:14:35.827Z,67.49
2019-05-13T00:15:35.824Z,67.33
2019-05-13T00:16:35.707Z,67.49
2019-05-13T00:17:35.705Z,67.33
2019-05-13T00:18:35.589Z,67.40
2019-05-13T00:19:35.588Z,67.49
2019-05-13T00:20:35.586Z,67.58
2019-05-13T00:21:35.470Z,67.30
2019-05-13T00:22:35.471Z,67.01
2019-05-13T00:23:35.349Z,67.11
2019-05-13T00:24:35.348Z,67.21
2019-05-13T00:25:35.231Z,67.30
2019-05-13T00:26:35.229Z,67.30
2019-05-13T00:27:35.113Z,67.30
2019-05-13T00:28:35.110Z,67.40
2019-05-13T00:29:34.994Z,67.40
2019-05-13T00:30:34.992Z,67.30
2019-05-13T00:31:34.874Z,67.21
2019-05-13T00:32:34.873Z,67.49
2019-05-13T00:33:34.755Z,67.01
2019-05-13T00:34:34.752Z,67.11
2019-05-13T00:35:34.638Z,67.40
2019-05-13T00:36:34.634Z,67.40
2019-05-13T00:37:34.634Z,67.11
2019-05-13T00:38:34.516Z,67.30
2019-05-13T00:39:34.515Z,67.49
2019-05-13T00:40:34.397Z,67.49
2019-05-13T00:41:34.397Z,67.49
2019-05-13T00:42:34.280Z,67.49
2019-05-13T00:43:34.277Z,67.01
2019-05-13T00:44:34.161Z,67.40
2019-05-13T00:45:34.267Z,67.01
2019-05-13T00:46:34.146Z,67.40
2019-05-13T00:47:34.254Z,67.11
2019-05-13T00:48:33.924Z,67.30
2019-05-13T00:49:34.491Z,67.30
2019-05-13T00:50:33.864Z,67.30
2019-05-13T00:51:33.870Z,67.01
2019-05-13T00:52:34.006Z,67.01
2019-05-13T00:53:35.317Z,67.21
2019-05-13T00:54:34.201Z,67.01
2019-05-13T00:55:34.373Z,67.11
2019-05-13T00:56:34.532Z,67.30
2019-05-13T00:57:34.148Z,67.40
2019-05-13T00:58:33.642Z,67.30
2019-05-13T00:59:33.971Z,67.40
2019-05-13T01:00:33.882Z,67.01
2019-05-13T01:01:33.590Z,67.21
2019-05-13T01:02:33.795Z,67.30
2019-05-13T01:03:33.809Z,67.11
2019-05-13T01:04:33.927Z,67.21
2019-05-13T01:05:33.925Z,67.11
2019-05-13T01:06:34.068Z,67.11
2019-05-13T01:07:34.148Z,67.11
2019-05-13T01:08:33.860Z,67.11
2019-05-13T01:09:34.302Z,67.21
2019-05-13T01:10:34.514Z,67.21
2019-05-13T01:11:34.316Z,66.92
2019-05-13T01:12:34.483Z,67.21
2019-05-13T01:13:34.207Z,67.21
2019-05-13T01:14:34.227Z,67.11
2019-05-13T01:15:34.265Z,67.30
2019-05-13T01:16:34.067Z,66.92
2019-05-13T01:17:34.034Z,67.11
2019-05-13T01:18:34.017Z,66.92
2019-05-13T01:19:34.304Z,67.21
2019-05-13T01:20:34.575Z,67.40
2019-05-13T01:21:34.324Z,67.40
2019-05-13T01:22:33.898Z,66.92
2019-05-13T01:23:34.223Z,67.40
2019-05-13T01:24:33.721Z,66.92
2019-05-13T01:25:33.614Z,67.30
2019-05-13T01:26:33.787Z,67.40
2019-05-13T01:27:33.417Z,67.11
2019-05-13T01:28:31.665Z,67.21
2019-05-13T01:29:34.145Z,67.01
2019-05-13T01:30:34.242Z,67.11
2019-05-13T01:31:34.194Z,67.11
2019-05-13T01:32:34.161Z,67.11
2019-05-13T01:33:31.425Z,67.01
2019-05-13T01:34:33.779Z,67.01
2019-05-13T01:35:31.308Z,67.11
2019-05-13T01:36:31.305Z,67.21
2019-05-13T01:37:41.944Z,67.21
2019-05-13T01:38:31.186Z,67.01
2019-05-13T01:39:31.070Z,67.40
2019-05-13T01:40:31.067Z,67.30
2019-05-13T01:41:32.857Z,67.30
2019-05-13T01:42:30.948Z,67.11
2019-05-13T01:43:30.832Z,67.11
2019-05-13T01:44:32.962Z,67.11
2019-05-13T01:45:30.713Z,67.21
2019-05-13T01:46:30.710Z,67.01
2019-05-13T01:47:30.593Z,67.11
2019-05-13T01:48:30.590Z,67.21
2019-05-13T01:49:30.592Z,67.11
2019-05-13T01:50:30.472Z,67.11
2019-05-13T01:51:30.472Z,67.11
2019-05-13T01:52:30.356Z,67.49
2019-05-13T01:53:30.357Z,67.68
2019-05-13T01:54:30.237Z,67.40
2019-05-13T01:55:30.235Z,67.49
2019-05-13T01:56:30.117Z,67.58
2019-05-13T01:57:30.119Z,67.68
2019-05-13T01:58:29.998Z,67.49
2019-05-13T01:59:29.996Z,67.40
2019-05-13T02:00:29.888Z,67.49
2019-05-13T02:01:29.877Z,67.49
2019-05-13T02:02:29.762Z,67.40
2019-05-13T02:03:29.758Z,67.40
2019-05-13T02:04:29.641Z,67.11
2019-05-13T02:05:29.641Z,67.49
2019-05-13T02:06:29.526Z,67.40
2019-05-13T02:07:29.519Z,67.49
2019-05-13T02:08:29.521Z,67.40
2019-05-13T02:09:29.401Z,67.49
2019-05-13T02:10:29.401Z,67.30
2019-05-13T02:11:29.284Z,67.58
2019-05-13T02:12:29.282Z,67.58
2019-05-13T02:13:29.163Z,67.49
2019-05-13T02:14:29.166Z,67.40
2019-05-13T02:15:29.046Z,67.49
2019-05-13T02:16:29.044Z,67.49
2019-05-13T02:17:28.929Z,67.49
2019-05-13T02:18:28.924Z,67.49
2019-05-13T02:19:28.808Z,67.49
2019-05-13T02:20:28.806Z,67.68
2019-05-13T02:21:28.689Z,67.49
2019-05-13T02:22:28.687Z,66.82
2019-05-13T02:23:28.570Z,67.40
2019-05-13T02:24:28.570Z,67.40
2019-05-13T02:25:28.451Z,67.40
2019-05-13T02:26:28.449Z,67.30
2019-05-13T02:27:28.450Z,67.40
2019-05-13T02:28:28.331Z,66.63
2019-05-13T02:29:28.329Z,67.49
2019-05-13T02:30:28.212Z,67.49
2019-05-13T02:31:41.549Z,67.46
2019-05-13T02:32:28.095Z,67.58
2019-05-13T02:33:28.095Z,67.49
2019-05-13T02:34:27.978Z,67.49
2019-05-13T02:35:27.975Z,67.40
2019-05-13T02:36:27.855Z,66.92
2019-05-13T02:37:29.616Z,66.98
2019-05-13T02:38:30.753Z,67.55
2019-05-13T02:39:27.740Z,67.36
2019-05-13T02:40:27.625Z,67.40
2019-05-13T02:41:27.616Z,67.58
2019-05-13T02:42:27.499Z,66.92
2019-05-13T02:43:27.497Z,67.07
2019-05-13T02:44:27.382Z,66.82
2019-05-13T02:45:27.383Z,66.88
2019-05-13T02:46:27.268Z,66.98
2019-05-13T02:47:27.260Z,67.07
2019-05-13T02:48:27.261Z,66.98
2019-05-13T02:49:27.143Z,66.98
2019-05-13T02:50:27.152Z,66.60
2019-05-13T02:51:27.023Z,66.78
2019-05-13T02:52:27.036Z,66.88
2019-05-13T02:53:26.909Z,66.98
2019-05-13T02:54:26.908Z,66.78
2019-05-13T02:55:26.785Z,66.78
2019-05-13T02:56:26.783Z,66.31
2019-05-13T02:57:26.668Z,66.31
2019-05-13T02:58:26.673Z,66.50
2019-05-13T02:59:26.550Z,66.31
2019-05-13T03:00:26.545Z,66.31
2019-05-13T03:01:26.430Z,66.31
2019-05-13T03:02:26.425Z,66.50
2019-05-13T03:03:26.308Z,66.69
2019-05-13T03:04:26.305Z,66.60
2019-05-13T03:05:26.309Z,66.31
2019-05-13T03:06:26.190Z,66.31
2019-05-13T03:07:26.188Z,66.31
2019-05-13T03:08:39.128Z,66.22
2019-05-13T03:09:26.070Z,66.31
2019-05-13T03:10:25.987Z,66.31
2019-05-13T03:11:25.950Z,66.31
2019-05-13T03:12:25.838Z,66.69
2019-05-13T03:13:25.830Z,66.50
2019-05-13T03:14:25.713Z,66.88
2019-05-13T03:15:25.721Z,66.50
2019-05-13T03:16:25.601Z,66.22
2019-05-13T03:17:25.592Z,66.60
2019-05-13T03:18:25.481Z,66.60
2019-05-13T03:19:25.475Z,66.41
2019-05-13T03:20:25.366Z,66.41
2019-05-13T03:21:25.355Z,66.60
2019-05-13T03:22:25.240Z,66.60
2019-05-13T03:23:25.236Z,66.60
2019-05-13T03:24:25.120Z,66.50
2019-05-13T03:25:25.159Z,66.12
2019-05-13T03:26:25.001Z,66.12
2019-05-13T03:27:25.535Z,66.41
2019-05-13T03:28:24.997Z,66.60
2019-05-13T03:29:24.916Z,66.60
2019-05-13T03:30:26.107Z,66.31
2019-05-13T03:31:26.183Z,66.50
2019-05-13T03:32:28.770Z,66.50
2019-05-13T03:33:27.864Z,66.41
2019-05-13T03:34:26.745Z,66.60
2019-05-13T03:35:26.535Z,66.31
2019-05-13T03:36:26.200Z,66.60
2019-05-13T03:37:26.621Z,66.60
2019-05-13T03:38:24.403Z,66.41
2019-05-13T03:39:24.285Z,66.41
2019-05-13T03:40:24.283Z,66.31
2019-05-13T03:41:24.179Z,66.60
2019-05-13T03:42:24.164Z,66.60
2019-05-13T03:43:24.052Z,66.69
2019-05-13T03:44:24.133Z,66.41
2019-05-13T03:45:23.931Z,66.50
2019-05-13T03:46:23.928Z,66.50
2019-05-13T03:47:23.831Z,66.50
2019-05-13T03:48:24.023Z,66.60
2019-05-13T03:49:23.844Z,66.50
2019-05-13T03:50:23.691Z,66.12
2019-05-13T03:51:23.707Z,66.60
2019-05-13T03:52:23.571Z,66.60
2019-05-13T03:53:23.640Z,65.93
2019-05-13T03:54:23.459Z,65.93
2019-05-13T03:55:23.619Z,66.22
2019-05-13T03:56:23.886Z,66.31
2019-05-13T03:57:23.424Z,65.83
2019-05-13T03:58:24.041Z,66.50
2019-05-13T03:59:23.214Z,66.41
2019-05-13T04:00:23.832Z,66.41
2019-05-13T04:01:23.094Z,66.41
2019-05-13T04:02:22.995Z,66.31
2019-05-13T04:03:23.102Z,66.50
2019-05-13T04:04:23.552Z,66.31
2019-05-13T04:05:23.624Z,66.41
2019-05-13T04:06:23.651Z,66.31
2019-05-13T04:07:23.839Z,66.41
2019-05-13T04:08:23.171Z,66.31
2019-05-13T04:09:30.171Z,65.93
2019-05-13T04:10:23.287Z,66.22
2019-05-13T04:11:22.791Z,66.12
2019-05-13T04:12:22.918Z,66.22
2019-05-13T04:13:23.409Z,66.12
2019-05-13T04:14:23.248Z,66.31
2019-05-13T04:15:23.450Z,66.22
2019-05-13T04:16:23.725Z,65.83
2019-05-13T04:17:24.284Z,66.31
2019-05-13T04:18:23.475Z,66.12
2019-05-13T04:19:23.247Z,66.12
2019-05-13T04:20:23.212Z,65.93
2019-05-13T04:21:22.835Z,66.41
2019-05-13T04:22:23.010Z,66.31
2019-05-13T04:23:23.335Z,66.31
2019-05-13T04:24:22.948Z,66.31
2019-05-13T04:25:23.111Z,66.12
2019-05-13T04:26:23.581Z,66.31
2019-05-13T04:27:23.342Z,66.31
2019-05-13T04:28:22.262Z,66.02
2019-05-13T04:29:23.364Z,66.31
2019-05-13T04:30:22.332Z,66.31
2019-05-13T04:31:22.752Z,66.60
2019-05-13T04:32:22.948Z,66.60
2019-05-13T04:33:22.956Z,66.60
2019-05-13T04:34:23.038Z,66.12
2019-05-13T04:35:23.377Z,66.50
2019-05-13T04:36:23.417Z,66.41
2019-05-13T04:37:22.306Z,66.22
2019-05-13T04:38:22.603Z,66.41
2019-05-13T04:39:39.734Z,66.60
2019-05-13T04:40:23.201Z,66.22
2019-05-13T04:41:22.892Z,66.78
2019-05-13T04:42:23.127Z,66.88
2019-05-13T04:43:23.563Z,66.31
2019-05-13T04:44:23.821Z,66.69
2019-05-13T04:45:23.501Z,66.41
2019-05-13T04:46:22.805Z,66.60
2019-05-13T04:47:22.988Z,66.69
2019-05-13T04:48:22.866Z,66.22
2019-05-13T04:49:23.240Z,66.12
2019-05-13T04:50:22.445Z,66.69
2019-05-13T04:51:22.611Z,66.88
2019-05-13T04:52:22.235Z,66.88
2019-05-13T04:53:22.688Z,67.46
2019-05-13T04:54:22.572Z,67.17
2019-05-13T04:55:22.940Z,67.07
2019-05-13T04:56:22.357Z,67.07
2019-05-13T04:57:22.561Z,67.27
2019-05-13T04:58:23.174Z,66.98
2019-05-13T04:59:22.450Z,67.17
2019-05-13T05:00:22.551Z,66.88
2019-05-13T05:01:23.477Z,66.98
2019-05-13T05:02:22.406Z,67.07
2019-05-13T05:03:22.704Z,67.07
2019-05-13T05:04:24.307Z,67.07
2019-05-13T05:05:22.243Z,67.27
2019-05-13T05:06:22.478Z,67.17
2019-05-13T05:07:22.051Z,67.46
2019-05-13T05:08:22.237Z,67.74
2019-05-13T05:09:22.330Z,67.74
2019-05-13T05:10:30.255Z,67.46
2019-05-13T05:11:22.004Z,67.74
2019-05-13T05:12:19.047Z,67.65
2019-05-13T05:13:18.933Z,67.65
2019-05-13T05:14:18.933Z,67.74
2019-05-13T05:15:18.814Z,67.93
2019-05-13T05:16:18.809Z,67.55
2019-05-13T05:17:18.809Z,68.12
2019-05-13T05:18:18.692Z,67.46
2019-05-13T05:19:18.694Z,67.46
2019-05-13T05:20:18.573Z,67.83
2019-05-13T05:21:18.572Z,67.83
2019-05-13T05:22:18.454Z,67.74
2019-05-13T05:23:18.455Z,67.74
2019-05-13T05:24:18.335Z,67.74
2019-05-13T05:25:18.338Z,67.65
2019-05-13T05:26:18.216Z,67.65
2019-05-13T05:27:18.219Z,67.65
2019-05-13T05:28:18.214Z,67.65
2019-05-13T05:29:18.096Z,67.65
2019-05-13T05:30:17.978Z,67.65
2019-05-13T05:31:17.976Z,67.55
2019-05-13T05:32:17.861Z,67.36
2019-05-13T05:33:17.858Z,67.83
2019-05-13T05:34:17.744Z,67.55
2019-05-13T05:35:17.739Z,67.65
2019-05-13T05:36:17.621Z,67.55
2019-05-13T05:37:17.619Z,67.65
2019-05-13T05:38:17.516Z,67.65
2019-05-13T05:39:17.500Z,67.55
2019-05-13T05:40:30.470Z,67.55
2019-05-13T05:41:17.386Z,67.55
2019-05-13T05:42:17.384Z,67.74
2019-05-13T05:43:17.264Z,67.55
2019-05-13T05:44:17.263Z,67.27
2019-05-13T05:45:17.147Z,67.27
2019-05-13T05:46:17.147Z,66.88
2019-05-13T05:47:17.026Z,66.98
2019-05-13T05:48:17.024Z,67.27
2019-05-13T05:49:16.908Z,67.17
2019-05-13T05:50:16.911Z,67.46
2019-05-13T05:51:16.789Z,67.46
2019-05-13T05:52:16.786Z,67.46
2019-05-13T05:53:16.673Z,67.65
2019-05-13T05:54:16.667Z,66.88
2019-05-13T05:55:16.552Z,66.88
2019-05-13T05:56:16.548Z,66.88
2019-05-13T05:57:16.435Z,66.60
2019-05-13T05:58:16.429Z,66.41
2019-05-13T05:59:16.314Z,66.41
2019-05-13T06:00:16.309Z,66.02
2019-05-13T06:01:16.195Z,66.12
2019-05-13T06:02:16.197Z,65.93
2019-05-13T06:03:16.192Z,66.31
2019-05-13T06:04:16.075Z,66.02
2019-05-13T06:05:16.073Z,66.22
2019-05-13T06:06:15.956Z,66.12
2019-05-13T06:07:15.953Z,66.22
2019-05-13T06:08:17.744Z,66.02
2019-05-13T06:09:15.834Z,66.02
2019-05-13T06:10:15.717Z,66.22
2019-05-13T06:11:15.715Z,66.02
2019-05-13T06:12:15.606Z,66.12
2019-05-13T06:13:15.603Z,66.69
2019-05-13T06:14:15.481Z,66.69
2019-05-13T06:15:15.478Z,66.31
2019-05-13T06:16:15.366Z,66.12
2019-05-13T06:17:15.358Z,66.50
2019-05-13T06:18:15.242Z,66.41
2019-05-13T06:19:17.857Z,66.69
2019-05-13T06:20:15.123Z,66.12
2019-05-13T06:21:15.122Z,66.41
2019-05-13T06:22:15.004Z,66.60
2019-05-13T06:23:15.003Z,66.41
2019-05-13T06:24:15.006Z,66.22
2019-05-13T06:25:14.962Z,66.31
2019-05-13T06:26:14.883Z,66.60
2019-05-13T06:27:14.764Z,66.60
2019-05-13T06:28:14.767Z,66.31
2019-05-13T06:29:14.649Z,65.74
2019-05-13T06:30:14.667Z,65.74
2019-05-13T06:31:14.531Z,66.02
2019-05-13T06:32:22.044Z,66.50
2019-05-13T06:33:14.408Z,66.12
2019-05-13T06:34:14.406Z,66.12
2019-05-13T06:35:14.290Z,66.12
2019-05-13T06:36:14.287Z,66.12
2019-05-13T06:37:14.172Z,65.83
2019-05-13T06:38:14.168Z,66.12
2019-05-13T06:39:14.052Z,66.12
2019-05-13T06:40:14.053Z,65.83
2019-05-13T06:41:14.936Z,66.22
2019-05-13T06:42:13.930Z,66.41
2019-05-13T06:43:13.816Z,66.60
2019-05-13T06:44:13.815Z,65.64
2019-05-13T06:45:13.695Z,65.55
2019-05-13T06:46:13.695Z,65.17
2019-05-13T06:47:13.577Z,65.26
2019-05-13T06:48:13.577Z,65.55
2019-05-13T06:49:13.574Z,65.64
2019-05-13T06:50:13.459Z,65.55
2019-05-13T06:51:13.456Z,65.55
2019-05-13T06:52:13.337Z,65.45
2019-05-13T06:53:13.337Z,65.55
2019-05-13T06:54:13.218Z,65.55
2019-05-13T06:55:13.217Z,65.17
2019-05-13T06:56:13.101Z,65.17
2019-05-13T06:57:13.526Z,65.36
2019-05-13T06:58:12.982Z,65.17
2019-05-13T06:59:12.980Z,65.26
2019-05-13T07:00:12.863Z,65.17
2019-05-13T07:01:12.861Z,65.26
2019-05-13T07:02:12.752Z,65.26
2019-05-13T07:03:13.048Z,65.17
2019-05-13T07:04:12.627Z,65.55
2019-05-13T07:05:12.622Z,65.55
2019-05-13T07:06:12.525Z,65.45
2019-05-13T07:07:16.903Z,65.26
2019-05-13T07:08:12.390Z,65.17
2019-05-13T07:09:12.384Z,65.36
2019-05-13T07:10:12.839Z,65.55
2019-05-13T07:11:18.588Z,65.55
2019-05-13T07:12:12.268Z,65.74
2019-05-13T07:13:12.146Z,65.55
2019-05-13T07:14:12.846Z,65.36
2019-05-13T07:15:12.028Z,65.55
2019-05-13T07:16:12.046Z,65.26
2019-05-13T07:17:12.482Z,65.64
2019-05-13T07:18:11.994Z,65.26
2019-05-13T07:19:11.917Z,65.45
2019-05-13T07:20:11.947Z,65.55
2019-05-13T07:21:12.579Z,66.41
2019-05-13T07:22:11.841Z,66.41
2019-05-13T07:23:12.305Z,65.55
2019-05-13T07:24:12.747Z,65.64
2019-05-13T07:25:11.614Z,65.64
2019-05-13T07:26:12.309Z,65.45
2019-05-13T07:27:12.304Z,65.55
2019-05-13T07:28:12.618Z,65.55
2019-05-13T07:29:13.061Z,66.31
2019-05-13T07:30:11.468Z,66.31
2019-05-13T07:31:11.615Z,66.22
2019-05-13T07:32:12.013Z,66.02
2019-05-13T07:33:12.639Z,66.22
2019-05-13T07:34:11.587Z,66.31
2019-05-13T07:35:14.283Z,66.02
2019-05-13T07:36:12.726Z,65.83
2019-05-13T07:37:11.452Z,65.83
2019-05-13T07:38:11.713Z,66.15
2019-05-13T07:39:11.937Z,65.93
2019-05-13T07:40:11.636Z,65.96
2019-05-13T07:41:12.013Z,65.87
2019-05-13T07:42:12.381Z,65.83
2019-05-13T07:43:12.364Z,65.96
2019-05-13T07:44:11.894Z,66.31
2019-05-13T07:45:12.018Z,65.74
2019-05-13T07:46:12.411Z,66.44
2019-05-13T07:47:11.644Z,65.77
2019-05-13T07:48:20.515Z,66.35
2019-05-13T07:49:11.942Z,66.35
2019-05-13T07:50:12.484Z,66.25
2019-05-13T07:51:11.979Z,66.15
2019-05-13T07:52:11.906Z,66.44
2019-05-13T07:53:12.605Z,66.06
2019-05-13T07:54:11.420Z,65.87
2019-05-13T07:55:11.990Z,66.35
2019-05-13T07:56:11.770Z,66.35
2019-05-13T07:57:12.064Z,66.25
2019-05-13T07:58:11.547Z,66.35
2019-05-13T07:59:12.031Z,66.35
2019-05-13T08:00:09.530Z,66.35
2019-05-13T08:01:11.943Z,66.35
2019-05-13T08:02:12.098Z,66.35
2019-05-13T08:03:09.292Z,66.25
2019-05-13T08:04:21.764Z,66.25
2019-05-13T08:05:11.828Z,66.35
2019-05-13T08:06:11.094Z,66.35
2019-05-13T08:07:09.057Z,66.06
2019-05-13T08:08:11.449Z,66.25
2019-05-13T08:09:08.936Z,66.06
2019-05-13T08:10:11.409Z,66.06
2019-05-13T08:11:08.816Z,65.77
2019-05-13T08:12:10.895Z,65.77
2019-05-13T08:13:08.697Z,66.35
2019-05-13T08:14:08.695Z,66.44
2019-05-13T08:15:08.581Z,66.44
2019-05-13T08:16:08.576Z,65.48
2019-05-13T08:17:08.460Z,65.77
2019-05-13T08:18:08.457Z,65.77
2019-05-13T08:19:08.457Z,65.67
2019-05-13T08:20:08.339Z,65.58
2019-05-13T08:21:08.343Z,65.77
2019-05-13T08:22:08.220Z,65.77
2019-05-13T08:23:08.219Z,65.67
2019-05-13T08:24:08.102Z,65.39
2019-05-13T08:25:08.100Z,65.48
2019-05-13T08:26:07.982Z,65.48
2019-05-13T08:27:07.982Z,65.58
2019-05-13T08:28:07.866Z,65.58
2019-05-13T08:29:07.862Z,65.58
2019-05-13T08:30:07.747Z,65.58
2019-05-13T08:31:07.743Z,65.67
2019-05-13T08:32:07.796Z,65.58
2019-05-13T08:33:07.624Z,65.77
2019-05-13T08:34:07.510Z,65.48
2019-05-13T08:35:08.963Z,65.39
2019-05-13T08:36:07.389Z,65.48
2019-05-13T08:37:07.386Z,65.48
2019-05-13T08:38:07.270Z,65.39
2019-05-13T08:39:07.271Z,65.58
2019-05-13T08:40:07.150Z,65.77
2019-05-13T08:41:09.898Z,65.87
2019-05-13T08:42:15.054Z,65.58
2019-05-13T08:43:07.058Z,65.67
2019-05-13T08:44:07.030Z,65.87
2019-05-13T08:45:06.911Z,65.77
2019-05-13T08:46:06.910Z,65.30
2019-05-13T08:47:06.793Z,65.39
2019-05-13T08:48:06.792Z,65.39
2019-05-13T08:49:06.678Z,65.39
2019-05-13T08:50:06.672Z,65.20
2019-05-13T08:51:06.556Z,65.20
2019-05-13T08:52:06.554Z,65.58
2019-05-13T08:53:06.437Z,65.58
2019-05-13T08:54:06.435Z,65.20
2019-05-13T08:55:06.317Z,65.77
2019-05-13T08:56:06.315Z,65.48
2019-05-13T08:57:06.198Z,65.01
2019-05-13T08:58:06.196Z,65.48
2019-05-13T08:59:06.080Z,64.81
2019-05-13T09:00:06.129Z,64.72
2019-05-13T09:01:05.964Z,65.39
2019-05-13T09:02:05.958Z,64.91
2019-05-13T09:03:06.359Z,64.43
2019-05-13T09:04:05.839Z,64.37
2019-05-13T09:05:05.839Z,64.53
2019-05-13T09:06:05.723Z,65.10
2019-05-13T09:07:05.721Z,64.81
2019-05-13T09:08:05.603Z,64.62
2019-05-13T09:09:05.606Z,64.43
2019-05-13T09:10:05.487Z,64.43
2019-05-13T09:11:05.482Z,64.34
2019-05-13T09:12:05.380Z,64.34
2019-05-13T09:13:05.364Z,64.72
2019-05-13T09:14:05.248Z,64.62
2019-05-13T09:15:05.245Z,63.86
2019-05-13T09:16:05.128Z,63.86
2019-05-13T09:17:05.132Z,64.56
2019-05-13T09:18:05.008Z,64.91
2019-05-13T09:19:05.006Z,65.04
2019-05-13T09:20:04.890Z,64.91
2019-05-13T09:21:04.886Z,65.04
2019-05-13T09:22:04.771Z,64.56
2019-05-13T09:23:04.768Z,64.65
2019-05-13T09:24:20.656Z,64.75
2019-05-13T09:25:04.651Z,64.09
2019-05-13T09:26:04.650Z,63.42
2019-05-13T09:27:04.533Z,64.37
2019-05-13T09:28:04.530Z,64.56
2019-05-13T09:29:04.413Z,64.85
2019-05-13T09:30:04.412Z,64.37
2019-05-13T09:31:04.295Z,63.13
2019-05-13T09:32:04.335Z,64.28
2019-05-13T09:33:04.176Z,64.09
2019-05-13T09:34:04.174Z,64.37
2019-05-13T09:35:04.057Z,64.56
2019-05-13T09:36:04.059Z,64.47
2019-05-13T09:37:03.942Z,64.28
2019-05-13T09:38:03.935Z,64.28
2019-05-13T09:39:03.819Z,64.28
2019-05-13T09:40:03.817Z,64.18
2019-05-13T09:41:03.700Z,64.18
2019-05-13T09:42:03.699Z,64.47
2019-05-13T09:43:03.697Z,64.56
2019-05-13T09:44:03.581Z,64.56
2019-05-13T09:45:03.585Z,64.75
2019-05-13T09:46:03.464Z,64.09
2019-05-13T09:47:03.459Z,64.09
2019-05-13T09:48:03.345Z,64.18
2019-05-13T09:49:14.813Z,64.56
2019-05-13T09:50:04.580Z,64.09
2019-05-13T09:51:03.223Z,64.09
2019-05-13T09:52:03.106Z,64.18
2019-05-13T09:53:03.113Z,64.09
2019-05-13T09:54:02.988Z,64.18
2019-05-13T09:55:03.262Z,64.18
2019-05-13T09:56:02.867Z,64.09
2019-05-13T09:57:02.866Z,64.18
2019-05-13T09:58:02.753Z,64.18
2019-05-13T09:59:02.745Z,64.47
2019-05-13T10:00:02.631Z,64.28
2019-05-13T10:01:02.641Z,64.56
2019-05-13T10:02:03.374Z,64.85
2019-05-13T10:03:02.509Z,63.80
2019-05-13T10:04:03.160Z,63.51
2019-05-13T10:05:02.507Z,63.13
2019-05-13T10:06:02.738Z,62.84
2019-05-13T10:07:02.750Z,62.84
2019-05-13T10:08:02.593Z,63.70
2019-05-13T10:09:02.512Z,63.70
2019-05-13T10:10:02.151Z,63.51
2019-05-13T10:11:02.052Z,63.42
2019-05-13T10:12:03.197Z,63.42
2019-05-13T10:13:09.257Z,63.60
2019-05-13T10:14:02.388Z,63.13
2019-05-13T10:15:02.391Z,63.23
2019-05-13T10:16:01.794Z,63.42
2019-05-13T10:17:06.179Z,63.23
2019-05-13T10:18:01.948Z,62.75
2019-05-13T10:19:02.588Z,62.75
2019-05-13T10:20:01.562Z,63.23
2019-05-13T10:21:01.558Z,62.84
2019-05-13T10:22:01.473Z,63.23
2019-05-13T10:23:01.788Z,63.51
2019-05-13T10:24:01.319Z,64.09
2019-05-13T10:25:02.530Z,64.09
2019-05-13T10:26:03.280Z,63.99
2019-05-13T10:27:02.335Z,64.09
2019-05-13T10:28:02.020Z,64.09
2019-05-13T10:29:01.081Z,64.09
2019-05-13T10:30:00.966Z,64.28
2019-05-13T10:31:00.961Z,63.99
2019-05-13T10:32:02.985Z,63.99
2019-05-13T10:33:02.857Z,63.99
2019-05-13T10:34:02.397Z,63.42
2019-05-13T10:35:03.246Z,63.32
2019-05-13T10:36:03.502Z,63.03
2019-05-13T10:37:02.155Z,63.32
2019-05-13T10:38:03.716Z,62.65
2019-05-13T10:39:01.339Z,63.32
2019-05-13T10:40:02.314Z,63.03
2019-05-13T10:41:02.873Z,62.94
2019-05-13T10:42:03.041Z,62.84
2019-05-13T10:43:01.893Z,62.75
2019-05-13T10:44:02.946Z,63.23
2019-05-13T10:45:02.528Z,62.84
2019-05-13T10:46:02.535Z,62.75
2019-05-13T10:47:02.033Z,62.84
2019-05-13T10:48:02.848Z,62.84
2019-05-13T10:49:01.990Z,63.32
2019-05-13T10:50:02.883Z,62.84
2019-05-13T10:51:01.970Z,63.23
2019-05-13T10:51:59.783Z,63.03
2019-05-13T10:53:02.555Z,63.23
2019-05-13T10:53:59.732Z,63.32
2019-05-13T10:55:02.024Z,63.42
2019-05-13T10:55:59.532Z,63.51
2019-05-13T10:56:59.937Z,63.42
2019-05-13T10:58:01.618Z,62.37
2019-05-13T10:59:02.116Z,61.60
2019-05-13T11:00:02.441Z,60.93
2019-05-13T11:01:02.180Z,61.32
2019-05-13T11:01:59.342Z,61.22
2019-05-13T11:02:59.178Z,61.69
2019-05-13T11:03:59.059Z,62.18
2019-05-13T11:04:59.060Z,62.37
2019-05-13T11:05:58.941Z,61.89
2019-05-13T11:06:58.938Z,61.79
2019-05-13T11:07:58.823Z,60.74
2019-05-13T11:08:58.820Z,61.13
2019-05-13T11:09:58.711Z,60.77
2019-05-13T11:10:58.700Z,60.77
2019-05-13T11:11:58.585Z,60.96
2019-05-13T11:12:58.581Z,61.22
2019-05-13T11:14:06.656Z,61.89
2019-05-13T11:14:58.461Z,61.35
2019-05-13T11:15:58.811Z,61.51
2019-05-13T11:16:58.344Z,61.63
2019-05-13T11:17:58.345Z,62.01
2019-05-13T11:18:58.225Z,61.72
2019-05-13T11:19:58.224Z,61.72
2019-05-13T11:20:58.106Z,61.72
2019-05-13T11:21:58.117Z,61.82
2019-05-13T11:22:57.988Z,61.06
2019-05-13T11:23:57.986Z,60.68
2019-05-13T11:24:57.873Z,60.87
2019-05-13T11:25:57.867Z,60.68
2019-05-13T11:26:57.751Z,60.39
2019-05-13T11:27:58.548Z,60.39
2019-05-13T11:28:57.633Z,60.68
2019-05-13T11:29:57.632Z,60.58
2019-05-13T11:30:59.874Z,60.87
2019-05-13T11:31:57.511Z,61.06
2019-05-13T11:32:57.394Z,60.49
2019-05-13T11:33:57.391Z,60.49
2019-05-13T11:34:57.283Z,60.96
2019-05-13T11:35:57.276Z,60.96
2019-05-13T11:36:57.274Z,60.68
2019-05-13T11:37:57.158Z,60.96
2019-05-13T11:38:57.157Z,61.35
2019-05-13T11:39:57.036Z,60.77
2019-05-13T11:40:57.035Z,60.77
2019-05-13T11:41:56.921Z,60.87
2019-05-13T11:42:56.916Z,61.16
2019-05-13T11:44:12.211Z,61.25
2019-05-13T11:44:56.796Z,61.06
2019-05-13T11:45:56.681Z,61.16
2019-05-13T11:46:56.683Z,61.44
2019-05-13T11:47:56.561Z,61.16
2019-05-13T11:48:56.690Z,61.25
2019-05-13T11:49:56.681Z,61.25
2019-05-13T11:50:56.439Z,61.54
2019-05-13T11:51:56.323Z,61.92
2019-05-13T11:52:56.324Z,61.92
2019-05-13T11:53:56.324Z,61.35
2019-05-13T11:54:56.205Z,61.16
2019-05-13T11:55:56.202Z,61.25
2019-05-13T11:57:02.729Z,60.87
2019-05-13T11:57:56.083Z,60.77
2019-05-13T11:58:55.967Z,61.25
2019-05-13T11:59:55.965Z,60.49
2019-05-13T12:00:55.847Z,60.77
2019-05-13T12:01:55.845Z,60.49
2019-05-13T12:02:55.730Z,60.87
2019-05-13T12:03:55.725Z,60.68
2019-05-13T12:04:55.609Z,61.06
2019-05-13T12:05:55.606Z,60.77
2019-05-13T12:06:55.491Z,60.68
2019-05-13T12:07:55.488Z,60.49
2019-05-13T12:08:55.669Z,60.30
2019-05-13T12:09:55.368Z,60.39
2019-05-13T12:10:55.369Z,59.91
2019-05-13T12:11:55.255Z,60.20
2019-05-13T12:12:55.251Z,59.63
2019-05-13T12:13:55.132Z,59.34
2019-05-13T12:15:22.351Z,59.53
2019-05-13T12:15:55.014Z,59.72
2019-05-13T12:16:55.014Z,59.44
2019-05-13T12:17:54.895Z,59.24
2019-05-13T12:18:54.897Z,59.72
2019-05-13T12:19:54.778Z,60.01
2019-05-13T12:20:54.775Z,60.49
2019-05-13T12:21:54.657Z,60.10
2019-05-13T12:22:54.657Z,59.72
2019-05-13T12:23:54.538Z,59.63
2019-05-13T12:24:54.536Z,59.24
2019-05-13T12:25:54.457Z,58.86
2019-05-13T12:26:54.417Z,58.58
2019-05-13T12:27:54.418Z,58.19
2019-05-13T12:28:54.299Z,58.67
2019-05-13T12:29:54.362Z,58.67
2019-05-13T12:30:54.182Z,59.15
2019-05-13T12:31:54.182Z,58.95
2019-05-13T12:32:54.063Z,58.19
2019-05-13T12:33:54.087Z,58.19
2019-05-13T12:34:53.945Z,58.38
2019-05-13T12:35:53.978Z,57.53
2019-05-13T12:36:53.825Z,57.53
2019-05-13T12:37:53.823Z,58.00
2019-05-13T12:38:54.419Z,58.76
2019-05-13T12:39:53.703Z,59.24
2019-05-13T12:40:53.588Z,59.24
2019-05-13T12:41:54.065Z,59.34
2019-05-13T12:42:54.098Z,59.44
2019-05-13T12:43:54.129Z,58.86
2019-05-13T12:45:08.977Z,58.95
2019-05-13T12:45:53.663Z,58.95
2019-05-13T12:46:54.297Z,58.86
2019-05-13T12:47:53.296Z,59.05
2019-05-13T12:48:53.230Z,58.70
2019-05-13T12:49:53.112Z,59.37
2019-05-13T12:50:54.301Z,59.24
2019-05-13T12:52:00.352Z,58.98